Dugger, Indiana
Current Conditions -  °F | °C
As of 5:15 AM on Thursday 18 Dec 2014 (Local Time) from KRSV Reporting Station
Overcast Overcast  
Wind Chill: 26°   Ceiling: 1600
Heat Index: 26°   Visibility: 10mi
Dew Point: 22°   Wind: 3mph
Humidity: 85%   Direction: 80°E
Pressure: 30.29"   Gusts: NA
Location:  39.07°N, 87.26°W
Report Text: KRSV 181015Z AUTO 08003KT 10SM OVC016 M03/M06 A3029 RMK AO2 T10341056
Loading
Personal Weather Stations






























Interactive Weather Map New forecast layout! Learn more

10-Day Weather Forecast

Advertisements
Track Severe Weather on mobile